sensor_id;sensor_type;location;lat;lon;timestamp;pressure;altitude;pressure_sealevel;temperature;humidity
77047;BME280;65977;56.380;44.022;2022-12-29T00:02:12;100437.91;;;-1.19;54.30
77047;BME280;65977;56.380;44.022;2022-12-29T00:04:38;100443.06;;;-1.18;54.73
77047;BME280;65977;56.380;44.022;2022-12-29T00:07:04;100445.59;;;-1.16;54.23
77047;BME280;65977;56.380;44.022;2022-12-29T00:09:30;100447.31;;;-1.17;54.41
77047;BME280;65977;56.380;44.022;2022-12-29T00:11:57;100442.13;;;-1.17;54.27
77047;BME280;65977;56.380;44.022;2022-12-29T00:14:23;100438.63;;;-1.14;54.56
77047;BME280;65977;56.380;44.022;2022-12-29T00:17:08;100445.47;;;-1.13;54.57
77047;BME280;65977;56.380;44.022;2022-12-29T00:19:34;100441.22;;;-1.14;54.48
77047;BME280;65977;56.380;44.022;2022-12-29T00:22:17;100432.59;;;-1.15;54.52
77047;BME280;65977;56.380;44.022;2022-12-29T00:25:02;100426.59;;;-1.17;54.39
77047;BME280;65977;56.380;44.022;2022-12-29T00:27:34;100433.47;;;-1.16;54.85
77047;BME280;65977;56.380;44.022;2022-12-29T00:30:21;100432.59;;;-1.15;54.36
77047;BME280;65977;56.380;44.022;2022-12-29T00:33:19;100436.97;;;-1.17;55.03
77047;BME280;65977;56.380;44.022;2022-12-29T00:38:36;100430.97;;;-1.17;54.61
77047;BME280;65977;56.380;44.022;2022-12-29T00:41:20;100429.13;;;-1.15;54.37
77047;BME280;65977;56.380;44.022;2022-12-29T00:44:06;100429.13;;;-1.15;54.58
77047;BME280;65977;56.380;44.022;2022-12-29T00:46:37;100430.75;;;-1.13;54.67
77047;BME280;65977;56.380;44.022;2022-12-29T00:49:03;100426.34;;;-1.11;54.39
77047;BME280;65977;56.380;44.022;2022-12-29T00:51:48;100427.22;;;-1.10;55.09
77047;BME280;65977;56.380;44.022;2022-12-29T00:54:15;100434.91;;;-1.09;54.76
77047;BME280;65977;56.380;44.022;2022-12-29T00:56:41;100434.09;;;-1.09;54.73
77047;BME280;65977;56.380;44.022;2022-12-29T00:59:09;100432.19;;;-1.06;55.05
77047;BME280;65977;56.380;44.022;2022-12-29T01:01:35;100429.56;;;-1.04;54.75
77047;BME280;65977;56.380;44.022;2022-12-29T01:04:01;100434.59;;;-1.01;54.47
77047;BME280;65977;56.380;44.022;2022-12-29T01:06:27;100429.41;;;-1.01;54.50
77047;BME280;65977;56.380;44.022;2022-12-29T01:08:52;100425.94;;;-1.00;54.39
77047;BME280;65977;56.380;44.022;2022-12-29T01:11:36;100431.00;;;-0.97;54.34
77047;BME280;65977;56.380;44.022;2022-12-29T01:14:02;100429.38;;;-1.00;54.48
77047;BME280;65977;56.380;44.022;2022-12-29T01:16:28;100436.22;;;-0.99;54.73
77047;BME280;65977;56.380;44.022;2022-12-29T01:18:54;100428.44;;;-0.99;54.62
77047;BME280;65977;56.380;44.022;2022-12-29T01:21:20;100428.44;;;-0.99;54.61
77047;BME280;65977;56.380;44.022;2022-12-29T01:23:45;100436.22;;;-0.99;55.06
77047;BME280;65977;56.380;44.022;2022-12-29T01:26:12;100436.09;;;-0.96;54.50
77047;BME280;65977;56.380;44.022;2022-12-29T01:28:38;100437.84;;;-0.96;54.70
77047;BME280;65977;56.380;44.022;2022-12-29T01:31:09;100430.91;;;-0.96;54.70
77047;BME280;65977;56.380;44.022;2022-12-29T01:33:35;100441.25;;;-0.94;54.94
77047;BME280;65977;56.380;44.022;2022-12-29T01:36:06;100439.47;;;-0.94;55.19
77047;BME280;65977;56.380;44.022;2022-12-29T01:38:34;100444.53;;;-0.91;54.81
77047;BME280;65977;56.380;44.022;2022-12-29T01:41:00;100435.03;;;-0.90;54.91
77047;BME280;65977;56.380;44.022;2022-12-29T01:43:43;100433.22;;;-0.88;55.12
77047;BME280;65977;56.380;44.022;2022-12-29T01:48:45;100440.94;;;-0.87;54.71
77047;BME280;65977;56.380;44.022;2022-12-29T01:51:12;100446.13;;;-0.87;55.14
77047;BME280;65977;56.380;44.022;2022-12-29T01:53:38;100443.47;;;-0.85;54.54
77047;BME280;65977;56.380;44.022;2022-12-29T01:56:07;100435.88;;;-0.90;54.94
77047;BME280;65977;56.380;44.022;2022-12-29T01:58:37;100437.38;;;-0.84;55.17
77047;BME280;65977;56.380;44.022;2022-12-29T02:01:05;100440.66;;;-0.81;54.92
77047;BME280;65977;56.380;44.022;2022-12-29T02:03:31;100440.56;;;-0.78;55.42
77047;BME280;65977;56.380;44.022;2022-12-29T02:06:03;100441.31;;;-0.76;55.39
77047;BME280;65977;56.380;44.022;2022-12-29T02:08:32;100441.28;;;-0.74;54.74
77047;BME280;65977;56.380;44.022;2022-12-29T02:10:59;100440.44;;;-0.75;55.00
77047;BME280;65977;56.380;44.022;2022-12-29T02:13:27;100441.19;;;-0.73;54.77
77047;BME280;65977;56.380;44.022;2022-12-29T02:27:50;100448.22;;;-0.75;55.01
77047;BME280;65977;56.380;44.022;2022-12-29T02:36:18;100446.31;;;-0.71;54.87
77047;BME280;65977;56.380;44.022;2022-12-29T02:38:50;100444.56;;;-0.71;54.54
77047;BME280;65977;56.380;44.022;2022-12-29T02:43:50;100448.91;;;-0.71;54.35
77047;BME280;65977;56.380;44.022;2022-12-29T02:46:56;100442.09;;;-0.74;55.32
77047;BME280;65977;56.380;44.022;2022-12-29T02:49:25;100446.31;;;-0.71;54.93
77047;BME280;65977;56.380;44.022;2022-12-29T02:51:55;100438.53;;;-0.71;54.69
77047;BME280;65977;56.380;44.022;2022-12-29T02:54:24;100439.38;;;-0.71;54.67
77047;BME280;65977;56.380;44.022;2022-12-29T02:59:57;100440.22;;;-0.70;55.09
77047;BME280;65977;56.380;44.022;2022-12-29T03:02:49;100453.94;;;-0.67;55.07
77047;BME280;65977;56.380;44.022;2022-12-29T03:11:05;100452.97;;;-0.64;54.92
77047;BME280;65977;56.380;44.022;2022-12-29T03:13:56;100462.50;;;-0.65;54.54
77047;BME280;65977;56.380;44.022;2022-12-29T03:16:51;100455.56;;;-0.64;55.19
77047;BME280;65977;56.380;44.022;2022-12-29T03:19:26;100456.38;;;-0.64;54.66
77047;BME280;65977;56.380;44.022;2022-12-29T03:22:04;100451.19;;;-0.64;54.71
77047;BME280;65977;56.380;44.022;2022-12-29T03:25:17;100456.53;;;-0.67;54.95
77047;BME280;65977;56.380;44.022;2022-12-29T03:27:49;100459.03;;;-0.65;55.20
77047;BME280;65977;56.380;44.022;2022-12-29T03:30:16;100457.22;;;-0.63;55.23
77047;BME280;65977;56.380;44.022;2022-12-29T03:32:49;100462.38;;;-0.61;55.32
77047;BME280;65977;56.380;44.022;2022-12-29T03:35:20;100463.19;;;-0.61;55.03
77047;BME280;65977;56.380;44.022;2022-12-29T03:38:04;100456.13;;;-0.57;54.92
77047;BME280;65977;56.380;44.022;2022-12-29T03:40:33;100462.19;;;-0.57;54.84
77047;BME280;65977;56.380;44.022;2022-12-29T03:43:01;100464.66;;;-0.54;55.54
77047;BME280;65977;56.380;44.022;2022-12-29T03:45:28;100466.28;;;-0.51;54.75
77047;BME280;65977;56.380;44.022;2022-12-29T03:47:53;100461.84;;;-0.49;54.62
77047;BME280;65977;56.380;44.022;2022-12-29T03:50:19;100459.38;;;-0.52;54.54
77047;BME280;65977;56.380;44.022;2022-12-29T03:52:45;100460.88;;;-0.47;54.82
77047;BME280;65977;56.380;44.022;2022-12-29T03:55:11;100468.53;;;-0.44;55.01
77047;BME280;65977;56.380;44.022;2022-12-29T03:57:38;100465.88;;;-0.42;54.80
77047;BME280;65977;56.380;44.022;2022-12-29T04:00:05;100460.69;;;-0.42;54.65
77047;BME280;65977;56.380;44.022;2022-12-29T04:02:31;100460.75;;;-0.44;54.55
77047;BME280;65977;56.380;44.022;2022-12-29T04:04:57;100467.50;;;-0.40;54.68
77047;BME280;65977;56.380;44.022;2022-12-29T04:07:22;100469.19;;;-0.39;54.63
77047;BME280;65977;56.380;44.022;2022-12-29T04:09:48;100469.13;;;-0.37;54.69
77047;BME280;65977;56.380;44.022;2022-12-29T04:12:13;100475.09;;;-0.35;54.83
77047;BME280;65977;56.380;44.022;2022-12-29T04:14:40;100480.22;;;-0.34;55.21
77047;BME280;65977;56.380;44.022;2022-12-29T04:17:06;100471.50;;;-0.33;55.51
77047;BME280;65977;56.380;44.022;2022-12-29T04:19:31;100473.34;;;-0.35;55.14
77047;BME280;65977;56.380;44.022;2022-12-29T04:21:57;100475.81;;;-0.32;55.02
77047;BME280;65977;56.380;44.022;2022-12-29T04:24:23;100479.25;;;-0.31;55.11
77047;BME280;65977;56.380;44.022;2022-12-29T04:26:49;100483.53;;;-0.30;55.04
77047;BME280;65977;56.380;44.022;2022-12-29T04:29:15;100491.19;;;-0.27;54.93
77047;BME280;65977;56.380;44.022;2022-12-29T04:31:40;100489.50;;;-0.28;54.81
77047;BME280;65977;56.380;44.022;2022-12-29T04:34:06;100491.94;;;-0.25;54.85
77047;BME280;65977;56.380;44.022;2022-12-29T04:36:32;100495.41;;;-0.25;54.77
77047;BME280;65977;56.380;44.022;2022-12-29T04:38:57;100486.72;;;-0.24;54.76
77047;BME280;65977;56.380;44.022;2022-12-29T04:41:23;100497.88;;;-0.22;55.63
77047;BME280;65977;56.380;44.022;2022-12-29T04:43:49;100502.09;;;-0.19;55.25
77047;BME280;65977;56.380;44.022;2022-12-29T04:46:14;100496.81;;;-0.18;55.29
77047;BME280;65977;56.380;44.022;2022-12-29T04:48:40;100502.88;;;-0.17;56.49
77047;BME280;65977;56.380;44.022;2022-12-29T04:51:06;100496.81;;;-0.18;56.18
77047;BME280;65977;56.380;44.022;2022-12-29T04:53:31;100506.19;;;-0.14;56.03
77047;BME280;65977;56.380;44.022;2022-12-29T04:55:57;100497.63;;;-0.16;55.59
77047;BME280;65977;56.380;44.022;2022-12-29T04:58:22;100500.16;;;-0.14;55.88
77047;BME280;65977;56.380;44.022;2022-12-29T05:00:48;100500.91;;;-0.12;55.06
77047;BME280;65977;56.380;44.022;2022-12-29T05:03:15;100507.72;;;-0.10;55.18
77047;BME280;65977;56.380;44.022;2022-12-29T05:05:40;100515.41;;;-0.07;55.57
77047;BME280;65977;56.380;44.022;2022-12-29T05:08:06;100515.31;;;-0.05;56.13
77047;BME280;65977;56.380;44.022;2022-12-29T05:10:32;100501.50;;;-0.06;56.30
77047;BME280;65977;56.380;44.022;2022-12-29T05:12:58;100511.81;;;-0.04;56.10
77047;BME280;65977;56.380;44.022;2022-12-29T05:15:23;100514.34;;;-0.03;55.70
77047;BME280;65977;56.380;44.022;2022-12-29T05:17:49;100519.41;;;0.00;55.96
77047;BME280;65977;56.380;44.022;2022-12-29T05:20:15;100519.50;;;-0.01;56.16
77047;BME280;65977;56.380;44.022;2022-12-29T05:22:40;100528.78;;;0.05;55.78
77047;BME280;65977;56.380;44.022;2022-12-29T05:25:06;100521.03;;;0.03;56.09
77047;BME280;65977;56.380;44.022;2022-12-29T05:27:32;100526.19;;;0.05;56.37
77047;BME280;65977;56.380;44.022;2022-12-29T05:29:58;100523.50;;;0.06;56.44
77047;BME280;65977;56.380;44.022;2022-12-29T05:32:23;100529.56;;;0.07;56.36
77047;BME280;65977;56.380;44.022;2022-12-29T05:34:49;100533.78;;;0.09;56.29
77047;BME280;65977;56.380;44.022;2022-12-29T05:37:15;100520.84;;;0.08;55.97
77047;BME280;65977;56.380;44.022;2022-12-29T05:39:41;100530.31;;;0.09;55.72
77047;BME280;65977;56.380;44.022;2022-12-29T05:42:06;100531.03;;;0.12;55.67
77047;BME280;65977;56.380;44.022;2022-12-29T05:44:32;100533.66;;;0.12;55.58
77047;BME280;65977;56.380;44.022;2022-12-29T05:46:58;100545.56;;;0.16;55.35
77047;BME280;65977;56.380;44.022;2022-12-29T05:49:23;100547.19;;;0.19;55.08
77047;BME280;65977;56.380;44.022;2022-12-29T05:51:49;100555.75;;;0.21;55.06
77047;BME280;65977;56.380;44.022;2022-12-29T05:54:14;100555.72;;;0.22;55.54
77047;BME280;65977;56.380;44.022;2022-12-29T05:56:40;100564.28;;;0.24;55.21
77047;BME280;65977;56.380;44.022;2022-12-29T05:59:06;100559.94;;;0.25;55.28
77047;BME280;65977;56.380;44.022;2022-12-29T06:01:31;100558.19;;;0.25;55.45
77047;BME280;65977;56.380;44.022;2022-12-29T06:03:58;100561.59;;;0.26;55.21
77047;BME280;65977;56.380;44.022;2022-12-29T06:06:24;100554.88;;;0.22;55.76
77047;BME280;65977;56.380;44.022;2022-12-29T06:08:49;100554.09;;;0.20;55.51
77047;BME280;65977;56.380;44.022;2022-12-29T06:11:15;100559.28;;;0.20;55.69
77047;BME280;65977;56.380;44.022;2022-12-29T06:13:40;100555.91;;;0.18;55.48
77047;BME280;65977;56.380;44.022;2022-12-29T06:16:07;100562.78;;;0.19;55.67
77047;BME280;65977;56.380;44.022;2022-12-29T06:18:33;100561.03;;;0.19;55.75
77047;BME280;65977;56.380;44.022;2022-12-29T06:21:03;100566.34;;;0.16;55.65
77047;BME280;65977;56.380;44.022;2022-12-29T06:23:29;100574.94;;;0.18;55.60
77047;BME280;65977;56.380;44.022;2022-12-29T06:25:55;100570.56;;;0.19;55.51
77047;BME280;65977;56.380;44.022;2022-12-29T06:28:21;100572.31;;;0.18;55.46
77047;BME280;65977;56.380;44.022;2022-12-29T06:30:47;100580.00;;;0.21;55.67
77047;BME280;65977;56.380;44.022;2022-12-29T06:33:13;100573.81;;;0.24;55.42
77047;BME280;65977;56.380;44.022;2022-12-29T06:35:39;100573.63;;;0.28;55.31
77047;BME280;65977;56.380;44.022;2022-12-29T06:38:04;100570.03;;;0.31;55.43
77047;BME280;65977;56.380;44.022;2022-12-29T06:40:31;100566.41;;;0.35;55.25
77047;BME280;65977;56.380;44.022;2022-12-29T06:42:56;100579.28;;;0.38;55.63
77047;BME280;65977;56.380;44.022;2022-12-29T06:45:22;100573.03;;;0.42;55.21
77047;BME280;65977;56.380;44.022;2022-12-29T06:47:48;100558.28;;;0.42;55.72
77047;BME280;65977;56.380;44.022;2022-12-29T06:50:13;100564.03;;;0.49;55.38
77047;BME280;65977;56.380;44.022;2022-12-29T06:52:39;100568.22;;;0.53;54.72
77047;BME280;65977;56.380;44.022;2022-12-29T06:55:05;100572.44;;;0.55;54.90
77047;BME280;65977;56.380;44.022;2022-12-29T06:57:31;100571.50;;;0.56;54.71
77047;BME280;65977;56.380;44.022;2022-12-29T06:59:57;100574.69;;;0.63;54.68
77047;BME280;65977;56.380;44.022;2022-12-29T07:02:22;100568.66;;;0.62;54.57
77047;BME280;65977;56.380;44.022;2022-12-29T07:04:51;100568.50;;;0.66;54.88
77047;BME280;65977;56.380;44.022;2022-12-29T07:07:18;100565.91;;;0.66;54.69
77047;BME280;65977;56.380;44.022;2022-12-29T07:09:45;100572.88;;;0.65;54.39
77047;BME280;65977;56.380;44.022;2022-12-29T07:12:11;100573.06;;;0.60;54.24
77047;BME280;65977;56.380;44.022;2022-12-29T07:14:36;100581.78;;;0.59;54.77
77047;BME280;65977;56.380;44.022;2022-12-29T07:17:02;100581.84;;;0.58;54.83
77047;BME280;65977;56.380;44.022;2022-12-29T07:19:31;100577.44;;;0.60;54.87
77047;BME280;65977;56.380;44.022;2022-12-29T07:21:56;100579.13;;;0.61;54.65
77047;BME280;65977;56.380;44.022;2022-12-29T07:24:22;100582.41;;;0.64;54.15
77047;BME280;65977;56.380;44.022;2022-12-29T07:26:48;100580.44;;;0.70;54.30
77047;BME280;65977;56.380;44.022;2022-12-29T07:29:13;100577.72;;;0.73;54.13
77047;BME280;65977;56.380;44.022;2022-12-29T07:31:39;100580.09;;;0.77;54.31
77047;BME280;65977;56.380;44.022;2022-12-29T07:34:05;100576.31;;;0.84;54.05
77047;BME280;65977;56.380;44.022;2022-12-29T07:36:30;100583.06;;;0.88;53.95
77047;BME280;65977;56.380;44.022;2022-12-29T07:38:56;100574.06;;;0.95;53.81
77047;BME280;65977;56.380;44.022;2022-12-29T07:41:21;100573.00;;;0.99;53.75
77047;BME280;65977;56.380;44.022;2022-12-29T07:43:47;100577.94;;;1.05;53.57
77047;BME280;65977;56.380;44.022;2022-12-29T07:46:14;100577.66;;;1.11;53.71
77047;BME280;65977;56.380;44.022;2022-12-29T07:48:39;100574.84;;;1.16;53.37
77047;BME280;65977;56.380;44.022;2022-12-29T07:51:05;100577.16;;;1.22;53.67
77047;BME280;65977;56.380;44.022;2022-12-29T07:53:32;100581.22;;;1.27;53.12
77047;BME280;65977;56.380;44.022;2022-12-29T07:55:57;100581.84;;;1.33;53.14
77047;BME280;65977;56.380;44.022;2022-12-29T07:58:23;100580.72;;;1.38;52.94
77047;BME280;65977;56.380;44.022;2022-12-29T08:00:53;100580.66;;;1.40;52.56
77047;BME280;65977;56.380;44.022;2022-12-29T08:03:19;100576.13;;;1.43;52.94
77047;BME280;65977;56.380;44.022;2022-12-29T08:05:45;100576.84;;;1.47;52.88
77047;BME280;65977;56.380;44.022;2022-12-29T08:08:10;100582.81;;;1.49;52.66
77047;BME280;65977;56.380;44.022;2022-12-29T08:10:36;100575.75;;;1.51;52.41
77047;BME280;65977;56.380;44.022;2022-12-29T08:13:01;100580.06;;;1.52;52.59
77047;BME280;65977;56.380;44.022;2022-12-29T08:15:27;100582.53;;;1.55;52.27
77047;BME280;65977;56.380;44.022;2022-12-29T08:17:53;100583.16;;;1.60;52.63
77047;BME280;65977;56.380;44.022;2022-12-29T08:20:18;100577.72;;;1.64;52.13
77047;BME280;65977;56.380;44.022;2022-12-29T08:22:44;100584.25;;;1.73;52.21
77047;BME280;65977;56.380;44.022;2022-12-29T08:25:09;100584.00;;;1.77;51.91
77047;BME280;65977;56.380;44.022;2022-12-29T08:27:35;100582.94;;;1.81;51.96
77047;BME280;65977;56.380;44.022;2022-12-29T08:30:02;100584.50;;;1.85;51.85
77047;BME280;65977;56.380;44.022;2022-12-29T08:32:29;100587.72;;;1.90;51.89
77047;BME280;65977;56.380;44.022;2022-12-29T08:34:55;100587.38;;;1.97;51.38
77047;BME280;65977;56.380;44.022;2022-12-29T08:37:21;100582.94;;;1.99;51.54
77047;BME280;65977;56.380;44.022;2022-12-29T08:39:47;100582.72;;;2.03;51.27
77047;BME280;65977;56.380;44.022;2022-12-29T08:42:13;100584.09;;;2.10;51.08
77047;BME280;65977;56.380;44.022;2022-12-29T08:44:39;100594.13;;;2.18;51.26
77047;BME280;65977;56.380;44.022;2022-12-29T08:47:05;100586.69;;;2.27;51.36
77047;BME280;65977;56.380;44.022;2022-12-29T08:49:31;100592.97;;;2.40;50.86
77047;BME280;65977;56.380;44.022;2022-12-29T08:51:58;100591.47;;;2.52;51.01
77047;BME280;65977;56.380;44.022;2022-12-29T08:54:24;100596.13;;;2.63;50.57
77047;BME280;65977;56.380;44.022;2022-12-29T08:56:50;100592.38;;;2.68;49.96
77047;BME280;65977;56.380;44.022;2022-12-29T08:59:16;100594.88;;;2.70;50.12
77047;BME280;65977;56.380;44.022;2022-12-29T09:01:41;100594.13;;;2.68;49.76
77047;BME280;65977;56.380;44.022;2022-12-29T09:04:07;100592.38;;;2.68;49.98
77047;BME280;65977;56.380;44.022;2022-12-29T09:06:34;100590.63;;;2.69;49.90
77047;BME280;65977;56.380;44.022;2022-12-29T09:08:59;100595.97;;;2.66;50.37
77047;BME280;65977;56.380;44.022;2022-12-29T09:11:25;100608.13;;;2.67;50.21
77047;BME280;65977;56.380;44.022;2022-12-29T09:13:52;100602.28;;;2.62;49.69
77047;BME280;65977;56.380;44.022;2022-12-29T09:16:19;100602.59;;;2.55;50.43
77047;BME280;65977;56.380;44.022;2022-12-29T09:18:45;100603.91;;;2.47;50.83
77047;BME280;65977;56.380;44.022;2022-12-29T09:21:12;100605.16;;;2.40;50.99
77047;BME280;65977;56.380;44.022;2022-12-29T09:23:38;100597.22;;;2.26;51.61
77047;BME280;65977;56.380;44.022;2022-12-29T09:26:04;100591.44;;;2.19;51.74
77047;BME280;65977;56.380;44.022;2022-12-29T09:28:30;100594.28;;;2.15;52.24
77047;BME280;65977;56.380;44.022;2022-12-29T09:30:57;100595.28;;;2.12;51.95
77047;BME280;65977;56.380;44.022;2022-12-29T09:33:23;100601.97;;;2.18;52.13
77047;BME280;65977;56.380;44.022;2022-12-29T09:35:57;100600.09;;;2.20;51.96
77047;BME280;65977;56.380;44.022;2022-12-29T09:38:24;100596.75;;;2.18;51.92
77047;BME280;65977;56.380;44.022;2022-12-29T09:40:52;100602.88;;;2.17;52.32
77047;BME280;65977;56.380;44.022;2022-12-29T09:48:43;100609.06;;;2.14;52.64
77047;BME280;65977;56.380;44.022;2022-12-29T09:51:15;100605.63;;;2.14;52.71
77047;BME280;65977;56.380;44.022;2022-12-29T09:53:44;100607.94;;;2.20;52.36
77047;BME280;65977;56.380;44.022;2022-12-29T09:56:17;100610.00;;;2.30;52.37
77047;BME280;65977;56.380;44.022;2022-12-29T10:03:56;100608.47;;;2.43;52.58
77047;BME280;65977;56.380;44.022;2022-12-29T10:22:22;100617.44;;;2.38;51.67
77047;BME280;65977;56.380;44.022;2022-12-29T10:24:53;100623.34;;;2.41;51.42
77047;BME280;65977;56.380;44.022;2022-12-29T10:27:21;100625.09;;;2.41;51.17
77047;BME280;65977;56.380;44.022;2022-12-29T10:29:53;100621.03;;;2.35;51.77
77047;BME280;65977;56.380;44.022;2022-12-29T10:33:17;100622.78;;;2.35;52.06
77047;BME280;65977;56.380;44.022;2022-12-29T10:35:26;100629.00;;;2.32;51.31
77047;BME280;65977;56.380;44.022;2022-12-29T10:40:50;100625.88;;;2.26;51.36
77047;BME280;65977;56.380;44.022;2022-12-29T10:43:27;100630.47;;;2.21;51.73
77047;BME280;65977;56.380;44.022;2022-12-29T10:45:57;100625.47;;;2.16;51.89
77047;BME280;65977;56.380;44.022;2022-12-29T10:48:28;100630.94;;;2.12;52.13
77047;BME280;65977;56.380;44.022;2022-12-29T10:50:58;100642.50;;;2.06;51.89
77047;BME280;65977;56.380;44.022;2022-12-29T10:53:35;100641.06;;;2.01;51.88
77047;BME280;65977;56.380;44.022;2022-12-29T10:56:25;100643.72;;;1.99;51.76
77047;BME280;65977;56.380;44.022;2022-12-29T10:58:54;100642.97;;;1.97;51.89
77047;BME280;65977;56.380;44.022;2022-12-29T11:01:24;100645.66;;;1.96;51.80
77047;BME280;65977;56.380;44.022;2022-12-29T11:04:03;100645.69;;;1.94;51.66
77047;BME280;65977;56.380;44.022;2022-12-29T11:06:29;100632.91;;;1.89;52.01
77047;BME280;65977;56.380;44.022;2022-12-29T11:08:58;100640.00;;;1.86;51.60
77047;BME280;65977;56.380;44.022;2022-12-29T11:11:36;100633.38;;;1.80;51.79
77047;BME280;65977;56.380;44.022;2022-12-29T11:14:27;100641.31;;;1.77;52.12
77047;BME280;65977;56.380;44.022;2022-12-29T11:17:01;100646.59;;;1.76;51.88
77047;BME280;65977;56.380;44.022;2022-12-29T11:19:29;100642.31;;;1.75;51.89
77047;BME280;65977;56.380;44.022;2022-12-29T11:24:49;100637.16;;;1.73;51.77
77047;BME280;65977;56.380;44.022;2022-12-29T11:27:24;100633.03;;;1.69;52.17
77047;BME280;65977;56.380;44.022;2022-12-29T11:29:52;100637.38;;;1.69;52.02
77047;BME280;65977;56.380;44.022;2022-12-29T11:32:23;100641.06;;;1.65;52.13
77047;BME280;65977;56.380;44.022;2022-12-29T11:34:50;100638.59;;;1.62;52.35
77047;BME280;65977;56.380;44.022;2022-12-29T11:40:19;100646.91;;;1.51;52.33
77047;BME280;65977;56.380;44.022;2022-12-29T11:42:59;100652.34;;;1.47;52.42
77047;BME280;65977;56.380;44.022;2022-12-29T11:45:34;100653.34;;;1.44;52.79
77047;BME280;65977;56.380;44.022;2022-12-29T11:48:19;100657.78;;;1.42;52.77
77047;BME280;65977;56.380;44.022;2022-12-29T11:50:52;100655.22;;;1.41;52.74
77047;BME280;65977;56.380;44.022;2022-12-29T11:53:26;100655.34;;;1.38;53.14
77047;BME280;65977;56.380;44.022;2022-12-29T11:55:57;100654.72;;;1.33;53.06
77047;BME280;65977;56.380;44.022;2022-12-29T11:58:31;100652.34;;;1.28;54.52
77047;BME280;65977;56.380;44.022;2022-12-29T12:01:13;100653.28;;;1.27;53.66
77047;BME280;65977;56.380;44.022;2022-12-29T12:03:46;100666.47;;;1.22;53.71
77047;BME280;65977;56.380;44.022;2022-12-29T12:06:16;100669.16;;;1.21;53.89
77047;BME280;65977;56.380;44.022;2022-12-29T12:08:48;100665.78;;;1.19;54.31
77047;BME280;65977;56.380;44.022;2022-12-29T12:11:25;100669.28;;;1.18;53.74
77047;BME280;65977;56.380;44.022;2022-12-29T12:16:27;100673.72;;;1.16;54.28
77047;BME280;65977;56.380;44.022;2022-12-29T12:21:40;100677.31;;;1.13;54.10
77047;BME280;65977;56.380;44.022;2022-12-29T12:27:02;100686.03;;;1.12;54.13
77047;BME280;65977;56.380;44.022;2022-12-29T12:35:26;100700.94;;;1.09;54.44
77047;BME280;65977;56.380;44.022;2022-12-29T12:38:25;100700.09;;;1.08;54.45
77047;BME280;65977;56.380;44.022;2022-12-29T12:41:09;100706.28;;;1.06;54.55
77047;BME280;65977;56.380;44.022;2022-12-29T12:43:41;100705.34;;;1.07;54.58
77047;BME280;65977;56.380;44.022;2022-12-29T12:46:44;100705.50;;;1.04;55.28
77047;BME280;65977;56.380;44.022;2022-12-29T12:58:03;100713.50;;;0.99;54.90
77047;BME280;65977;56.380;44.022;2022-12-29T13:01:02;100710.19;;;0.96;54.72
77047;BME280;65977;56.380;44.022;2022-12-29T13:04:00;100720.72;;;0.93;54.49
77047;BME280;65977;56.380;44.022;2022-12-29T13:14:38;100730.91;;;0.79;54.66
77047;BME280;65977;56.380;44.022;2022-12-29T13:17:27;100733.53;;;0.77;55.01
77047;BME280;65977;56.380;44.022;2022-12-29T13:22:53;100728.53;;;0.73;54.62
77047;BME280;65977;56.380;44.022;2022-12-29T13:25:29;100742.44;;;0.72;54.66
77047;BME280;65977;56.380;44.022;2022-12-29T13:28:10;100735.56;;;0.71;54.77
77047;BME280;65977;56.380;44.022;2022-12-29T13:30:45;100742.41;;;0.73;54.80
77047;BME280;65977;56.380;44.022;2022-12-29T13:38:47;100753.78;;;0.71;54.55
77047;BME280;65977;56.380;44.022;2022-12-29T13:41:20;100754.56;;;0.73;54.50
77047;BME280;65977;56.380;44.022;2022-12-29T13:43:50;100758.06;;;0.72;54.33
77047;BME280;65977;56.380;44.022;2022-12-29T13:46:23;100754.63;;;0.71;54.67
77047;BME280;65977;56.380;44.022;2022-12-29T13:49:26;100756.31;;;0.72;54.90
77047;BME280;65977;56.380;44.022;2022-12-29T13:52:11;100740.97;;;0.66;54.57
77047;BME280;65977;56.380;44.022;2022-12-29T13:55:00;100763.25;;;0.72;54.83
77047;BME280;65977;56.380;44.022;2022-12-29T13:57:48;100755.53;;;0.70;55.25
77047;BME280;65977;56.380;44.022;2022-12-29T14:00:20;100755.53;;;0.70;54.69
77047;BME280;65977;56.380;44.022;2022-12-29T14:05:31;100762.47;;;0.70;54.89
77047;BME280;65977;56.380;44.022;2022-12-29T14:08:00;100756.44;;;0.69;55.06
77047;BME280;65977;56.380;44.022;2022-12-29T14:13:16;100766.06;;;0.67;55.01
77047;BME280;65977;56.380;44.022;2022-12-29T14:15:44;100759.22;;;0.64;54.91
77047;BME280;65977;56.380;44.022;2022-12-29T14:18:12;100760.97;;;0.64;54.71
77047;BME280;65977;56.380;44.022;2022-12-29T14:20:49;100762.78;;;0.62;55.00
77047;BME280;65977;56.380;44.022;2022-12-29T14:23:26;100767.88;;;0.65;54.63
77047;BME280;65977;56.380;44.022;2022-12-29T14:28:31;100770.41;;;0.67;54.99
77047;BME280;65977;56.380;44.022;2022-12-29T14:30:58;100777.38;;;0.66;54.43
77047;BME280;65977;56.380;44.022;2022-12-29T14:33:27;100779.16;;;0.64;55.01
77047;BME280;65977;56.380;44.022;2022-12-29T14:35:54;100778.41;;;0.62;54.57
77047;BME280;65977;56.380;44.022;2022-12-29T14:38:23;100774.16;;;0.59;54.53
77047;BME280;65977;56.380;44.022;2022-12-29T14:40:50;100778.59;;;0.57;55.53
77047;BME280;65977;56.380;44.022;2022-12-29T14:43:26;100780.28;;;0.58;54.96
77047;BME280;65977;56.380;44.022;2022-12-29T14:45:56;100783.72;;;0.59;55.12
77047;BME280;65977;56.380;44.022;2022-12-29T14:48:36;100779.59;;;0.53;54.87
77047;BME280;65977;56.380;44.022;2022-12-29T14:51:27;100789.19;;;0.53;54.50
77047;BME280;65977;56.380;44.022;2022-12-29T14:53:54;100785.84;;;0.49;54.42
77047;BME280;65977;56.380;44.022;2022-12-29T14:56:25;100783.38;;;0.46;54.50
77047;BME280;65977;56.380;44.022;2022-12-29T14:58:52;100779.09;;;0.45;54.91